Flight Track Log - Related Links

Times and Time Zones

All times are in EDT time to prevent confusion due to time zone crossing. See the N654JR flight status page for this flight to view local times or setup timezone preferences in your user account.

Time Position Orientation Groundspeed Altitude Reporting Facility
EDT Latitude Longitude Course Direction KTS MPH feet Rate Location/Type
Wed 11:09:24 PM 35.0272 -106.5964 185° South 102 117 5,800  Level Albuquerque Center
Wed 11:10:25 PM 34.9939 -106.6000 185° South 138 159 6,400 617 Climbing Albuquerque Center
Wed 11:11:11 PM 34.9719 -106.6081 197° South 134 154 6,900 806 Climbing Albuquerque Center
Wed 11:11:32 PM 34.9542 -106.6178 204° Southwest 138 159 7,300 968 Climbing Albuquerque Center
Wed 11:12:13 PM 34.9303 -106.6264 196° South 132 152 7,900 900 Climbing Albuquerque Center
Wed 11:12:32 PM 34.9172 -106.6250 175° South 131 151 8,200 794 Climbing Albuquerque Center
Wed 11:13:21 PM 34.8892 -106.6242 179° South 130 150 8,800 466 Climbing Albuquerque Center
Wed 11:14:15 PM 34.8567 -106.6206 175° South 133 153 9,000 200 Climbing Albuquerque Center
Wed 11:14:21 PM 34.8525 -106.6208 183° South 136 157 9,000 590 Level Albuquerque Center
Wed 11:15:16 PM 34.8111 -106.6172 176° South 159 183 9,600 689 Climbing Albuquerque Center
Wed 11:15:22 PM 34.8075 -106.6194 207° Southwest 163 188 9,700 984 Climbing Albuquerque Center
Wed 11:16:17 PM 34.7789 -106.6144 172° South 120 138 10,600 985 Climbing Albuquerque Center
Wed 11:16:29 PM 34.7700 -106.6136 176° South 112 129 10,800 583 Climbing Albuquerque Center
Wed 11:17:29 PM 34.7403 -106.5903 147° Southeast 156 180 11,300 486 Climbing Albuquerque Center
Wed 11:18:20 PM 34.7267 -106.5517 113° Southeast 156 180 11,700 590 Climbing Albuquerque Center
Wed 11:18:30 PM 34.7231 -106.5406 112° Southeast 163 188 11,900 590 Climbing Albuquerque Center
Wed 11:19:21 PM 34.7092 -106.5019 114° Southeast 162 186 12,300 584 Climbing Albuquerque Center
Wed 11:20:23 PM 34.6897 -106.4489 114° Southeast 171 197 13,000 683 Climbing Albuquerque Center
Wed 11:21:24 PM 34.6697 -106.3964 115° Southeast 169 194 13,700 738 Climbing Albuquerque Center
Wed 11:22:25 PM 34.6667 -106.3289 93° East 172 198 14,500 689 Climbing Albuquerque Center
Wed 11:23:26 PM 34.6644 -106.2728 93° East 168 193 15,100 634 Climbing Albuquerque Center
Wed 11:24:28 PM 34.6628 -106.2131 92° East 175 201 15,800 585 Climbing Albuquerque Center
Wed 11:25:29 PM 34.6603 -106.1600 93° East 175 201 16,300 590 Climbing Albuquerque Center
Wed 11:26:30 PM 34.6583 -106.0872 92° East 178 205 17,000 585 Climbing Albuquerque Center
Wed 11:27:32 PM 34.6556 -106.0256 93° East 182 209 17,500 390 Climbing Albuquerque Center
Wed 11:28:33 PM 34.6533 -105.9639 92° East 183 211 17,800 443 Climbing Albuquerque Center
Wed 11:29:34 PM 34.6503 -105.9006 93° East 185 213 18,400 537 Climbing Albuquerque Center
Wed 11:30:36 PM 34.6492 -105.8411 91° East 185 213 18,900 488 Climbing Albuquerque Center
Wed 11:31:37 PM 34.6458 -105.7753 94° East 191 220 19,400 541 Climbing Albuquerque Center
Wed 11:32:38 PM 34.6436 -105.6983 92° East 194 223 20,000 585 Climbing Albuquerque Center
Wed 11:33:40 PM 34.6408 -105.6314 93° East 197 227 20,600 488 Climbing Albuquerque Center
Wed 11:34:41 PM 34.6378 -105.5636 93° East 199 229 21,000 439 Climbing Albuquerque Center
Wed 11:35:43 PM 34.6353 -105.4953 93° East 200 230 21,500 634 Climbing Albuquerque Center
Wed 11:36:44 PM 34.6314 -105.4247 94° East 205 236 22,300 689 Climbing Albuquerque Center
Wed 11:37:45 PM 34.6292 -105.3619 92° East 193 222 22,900 341 Climbing Albuquerque Center
Wed 11:38:47 PM 34.6261 -105.2933 93° East 198 228 23,000 33 Climbing Albuquerque Center
Wed 11:40:49 PM 34.6189 -105.1297 94° East 240 276 23,000  Level Albuquerque Center
Wed 11:41:51 PM 34.6156 -105.0458 93° East 246 283 23,000  Level Albuquerque Center
Wed 11:42:52 PM 34.6111 -104.9611 94° East 248 285 23,000  Level Albuquerque Center
Wed 11:43:53 PM 34.6072 -104.8761 93° East 250 288 23,000  Level Albuquerque Center
Wed 11:44:55 PM 34.6033 -104.7914 93° East 250 288 23,000  Level Albuquerque Center
Wed 11:45:56 PM 34.5981 -104.6925 94° East 251 289 23,000  Level Albuquerque Center
Wed 11:46:57 PM 34.5939 -104.6075 93° East 250 288 23,000 341 Level Albuquerque Center
Wed 11:47:59 PM 34.5900 -104.5242 93° East 248 285 23,700 634 Climbing Albuquerque Center
Wed 11:49:00 PM 34.5861 -104.4547 94° East 216 249 24,300 541 Climbing Albuquerque Center
Wed 11:50:01 PM 34.5719 -104.3839 104° East 214 246 24,800 341 Climbing Albuquerque Center
Wed 11:51:03 PM 34.5597 -104.3106 101° East 217 250 25,000 98 Climbing Albuquerque Center
Wed 11:52:04 PM 34.5456 -104.2317 102° East 230 265 25,000  Level Albuquerque Center
Wed 11:53:05 PM 34.5297 -104.1417 102° East 260 299 25,000  Level Albuquerque Center
Wed 11:54:07 PM 34.5139 -104.0514 102° East 270 311 25,000  Level Albuquerque Center
Wed 11:55:08 PM 34.4972 -103.9633 103° East 269 310 25,000  Level Albuquerque Center
Wed 11:56:09 PM 34.4806 -103.8747 103° East 268 308 25,000  Level Albuquerque Center
Wed 11:57:10 PM 34.4644 -103.7850 102° East 270 311 25,000  Level Albuquerque Center
Wed 11:58:12 PM 34.4458 -103.6819 102° East 268 308 25,000  Level Albuquerque Center
Wed 11:59:13 PM 34.4286 -103.5942 103° East 267 307 25,000  Level Albuquerque Center
Thu 12:00:14 AM 34.4122 -103.5036 102° East 271 312 25,000  Level Albuquerque Center
Thu 12:01:15 AM 34.3972 -103.4131 101° East 272 313 25,000  Level Albuquerque Center
Thu 12:02:17 AM 34.3806 -103.3239 103° East 272 313 25,000  Level Albuquerque Center
Thu 12:03:18 AM 34.3617 -103.2361 105° East 270 311 25,000  Level Albuquerque Center
Thu 12:04:19 AM 34.3467 -103.1486 102° East 266 306 25,000  Level Albuquerque Center
Thu 12:05:20 AM 34.3283 -103.0581 104° East 272 313 25,000  Level Albuquerque Center
Thu 12:06:21 AM 34.3119 -102.9739 103° East 274 315 25,000  Level Albuquerque Center
Thu 12:07:35 AM 34.2922 -102.8686 103° East 271 312 25,000  Level Albuquerque Center
Thu 12:08:36 AM 34.2719 -102.7614 103° East 272 313 25,000  Level Albuquerque Center
Thu 12:09:37 AM 34.2547 -102.6731 103° East 271 312 25,000  Level Albuquerque Center
Thu 12:10:38 AM 34.2372 -102.5861 104° East 269 310 25,000  Level Albuquerque Center
Thu 12:11:39 AM 34.2208 -102.4978 103° East 270 311 25,000  Level Albuquerque Center
Thu 12:12:40 AM 34.2047 -102.4167 103° East 270 311 25,000  Level Albuquerque Center
Thu 12:13:41 AM 34.1872 -102.3269 103° East 273 314 25,000  Level Albuquerque Center
Thu 12:14:42 AM 34.1694 -102.2389 104° East 272 313 25,000  Level Albuquerque Center
Thu 12:15:44 AM 34.1522 -102.1506 103° East 270 311 25,000  Level Albuquerque Center
Thu 12:16:45 AM 34.1350 -102.0611 103° East 272 313 25,000  Level Albuquerque Center
Thu 12:17:21 AM 34.1231 -102.0028 104° East 273 314 25,000  Level Fort Worth Center
Thu 12:18:22 AM 34.1050 -101.9147 104° East 272 313 25,000  Level Fort Worth Center
Thu 12:19:23 AM 34.0839 -101.8086 103° East 273 314 25,000  Level Fort Worth Center
Thu 12:20:23 AM 34.0667 -101.7214 103° East 271 312 25,000  Level Fort Worth Center
Thu 12:21:24 AM 34.0492 -101.6322 103° East 271 312 25,000  Level Fort Worth Center
Thu 12:22:25 AM 34.0311 -101.5456 104° East 271 312 25,000  Level Fort Worth Center
Thu 12:23:25 AM 34.0131 -101.4575 104° East 270 311 25,000  Level Fort Worth Center
Thu 12:24:26 AM 33.9953 -101.3692 104° East 271 312 25,000  Level Fort Worth Center
Thu 12:25:27 AM 33.9778 -101.2786 103° East 276 318 25,000  Level Fort Worth Center
Thu 12:26:27 AM 33.9594 -101.1914 104° East 275 316 25,000  Level Fort Worth Center
Thu 12:27:28 AM 33.9414 -101.1025 104° East 275 316 25,000  Level Fort Worth Center
Thu 12:28:28 AM 33.9233 -101.0183 104° East 275 316 25,000  Level Fort Worth Center
Thu 12:29:29 AM 33.9056 -100.9292 103° East 275 316 25,000  Level Fort Worth Center
Thu 12:30:30 AM 33.8861 -100.8419 105° East 275 316 25,000  Level Fort Worth Center
Thu 12:31:30 AM 33.8678 -100.7539 104° East 272 313 25,000  Level Fort Worth Center
Thu 12:32:31 AM 33.8489 -100.6664 105° East 272 313 25,000  Level Fort Worth Center
Thu 12:33:31 AM 33.8294 -100.5786 105° East 272 313 25,000  Level Fort Worth Center
Thu 12:34:32 AM 33.8117 -100.4881 103° East 273 314 25,000  Level Fort Worth Center
Thu 12:35:32 AM 33.7872 -100.3814 105° East 276 318 25,000  Level Fort Worth Center
Thu 12:36:33 AM 33.7683 -100.2914 104° East 277 319 25,000  Level Fort Worth Center
Thu 12:37:33 AM 33.7497 -100.2033 104° East 276 318 25,000  Level Fort Worth Center
Thu 12:38:34 AM 33.7303 -100.1158 105° East 276 318 25,000  Level Fort Worth Center
Thu 12:39:35 AM 33.7111 -100.0281 105° East 274 315 25,000  Level Fort Worth Center
Thu 12:40:35 AM 33.6917 -99.9394 105° East 274 315 25,000 -99 Level Fort Worth Center
Thu 12:41:36 AM 33.6719 -99.8500 105° East 274 315 24,800 -347 Descending Fort Worth Center
Thu 12:42:36 AM 33.6517 -99.7564 105° East 283 326 24,300 -397 Descending Fort Worth Center
Thu 12:43:37 AM 33.6306 -99.6617 105° East 289 333 24,000 -149 Descending Fort Worth Center
Thu 12:44:37 AM 33.6111 -99.5717 105° East 284 327 24,000  Level Fort Worth Center
Thu 12:45:38 AM 33.5911 -99.4844 105° East 275 316 24,000  Level Fort Worth Center
Thu 12:46:38 AM 33.5719 -99.3967 105° East 274 315 24,000  Level Fort Worth Center
Thu 12:47:39 AM 33.5528 -99.3097 105° East 271 312 24,000 -198 Level Fort Worth Center
Thu 12:48:39 AM 33.5322 -99.2203 105° East 274 315 23,600 -694 Descending Fort Worth Center
Thu 12:49:40 AM 33.5111 -99.1250 105° East 292 336 22,600 -1,041 Descending Fort Worth Center
Thu 12:50:40 AM 33.4872 -99.0206 105° East 304 350 21,500 -1,000 Descending Fort Worth Center
Thu 12:51:40 AM 33.4667 -98.9303 105° East 296 341 20,600 -942 Descending Fort Worth Center
Thu 12:52:41 AM 33.4450 -98.8339 105° East 290 334 19,600 -893 Descending Fort Worth Center
Thu 12:53:41 AM 33.4250 -98.7447 105° East 288 331 18,800 -800 Descending Fort Worth Center
Thu 12:54:41 AM 33.4050 -98.6578 105° East 284 327 18,000 -694 Descending Fort Worth Center
Thu 12:55:42 AM 33.3831 -98.5631 105° East 282 325 17,400 -744 Descending Fort Worth Center
Thu 12:56:42 AM 33.3622 -98.4717 105° East 274 315 16,500 -843 Descending Fort Worth Center
Thu 12:57:43 AM 33.3428 -98.3908 106° East 266 306 15,700 -744 Descending Fort Worth Center
Thu 12:58:43 AM 33.3233 -98.3078 106° East 251 289 15,000 -700 Descending Fort Worth Center
Thu 12:59:43 AM 33.3064 -98.2356 106° East 238 274 14,300 -694 Descending Fort Worth Center
Thu 01:00:44 AM 33.2886 -98.1583 105° East 233 268 13,600 -694 Descending Fort Worth Center
Thu 01:01:44 AM 33.2719 -98.0886 106° East 220 253 12,900 -650 Descending Fort Worth Center
Thu 01:02:44 AM 33.2553 -98.0208 106° East 214 246 12,300 -645 Descending Fort Worth Center
Thu 01:03:45 AM 33.2389 -97.9533 106° East 212 244 11,600 -645 Descending Fort Worth Center
Thu 01:04:45 AM 33.2236 -97.8878 106° East 208 239 11,000 -600 Descending Fort Worth Center
Thu 01:05:45 AM 33.2075 -97.8214 106° East 208 239 10,400 -595 Descending Fort Worth Center
Thu 01:06:46 AM 33.1922 -97.7569 106° East 203 234 9,800 -595 Descending Fort Worth Center
Thu 01:07:46 AM 33.1775 -97.6936 106° East 201 231 9,200 -600 Descending Fort Worth Center
Thu 01:08:46 AM 33.1611 -97.6289 107° East 201 231 8,600 -647 Descending Fort Worth Center
Thu 01:09:28 AM 33.1500 -97.5833 106° East 202 232 8,100 -611 Descending Dallas / Fort Worth TRACON
Thu 01:10:34 AM 33.1333 -97.5167 107° East 201 231 7,500 -571 Descending Dallas / Fort Worth TRACON
Thu 01:11:34 AM 33.1167 -97.4500 107° East 200 230 6,900 -625 Descending Dallas / Fort Worth TRACON
Thu 01:12:10 AM 33.1167 -97.4167 90° East 196 226 6,500 -575 Descending Dallas / Fort Worth TRACON
Thu 01:12:47 AM 33.1106 -97.3728 99° East 199 229 6,200 -551 Descending Fort Worth Center
Thu 01:13:48 AM 33.1031 -97.3100 98° East 195 224 5,600 -595 Descending Fort Worth Center
Thu 01:14:48 AM 33.0956 -97.2461 98° East 195 224 5,000 -600 Descending Fort Worth Center
Thu 01:15:48 AM 33.0878 -97.1817 98° East 195 224 4,400 -545 Descending Fort Worth Center
Thu 01:16:49 AM 33.0814 -97.1178 97° East 195 224 3,900 -446 Descending Fort Worth Center
Thu 01:17:49 AM 33.0750 -97.0547 97° East 195 224 3,500 -300 Descending Fort Worth Center
Thu 01:18:49 AM 33.0592 -97.0003 109° East 181 208 3,300 -545 Descending Fort Worth Center
Thu 01:19:50 AM 33.0286 -96.9458 124° Southeast 193 222 2,400 -843 Descending Fort Worth Center
Thu 01:20:50 AM 33.0094 -96.8911 113° Southeast 182 209 1,600 -600 Descending Fort Worth Center
Thu 01:21:50 AM 32.9958 -96.8472 110° East 130 150 1,200 -450 Descending Fort Worth Center
Thu 01:22:50 AM 32.9753 -96.8381 159° South 106 122 700 -500 Descending Fort Worth Center

Login

Don't have an account? Register now (free) for customized features, flight alerts, and more!